sensor_id;sensor_type;location;lat;lon;timestamp;temperature;humidity
75621;DHT22;64574;48.506;-2.750;2023-07-16T00:00:50;16.20;73.00
75621;DHT22;64574;48.506;-2.750;2023-07-16T00:03:16;16.10;73.00
75621;DHT22;64574;48.506;-2.750;2023-07-16T00:05:42;16.10;73.20
75621;DHT22;64574;48.506;-2.750;2023-07-16T00:08:07;16.10;73.30
75621;DHT22;64574;48.506;-2.750;2023-07-16T00:10:36;16.10;73.00
75621;DHT22;64574;48.506;-2.750;2023-07-16T00:13:03;16.00;73.30
75621;DHT22;64574;48.506;-2.750;2023-07-16T00:15:29;16.10;73.30
75621;DHT22;64574;48.506;-2.750;2023-07-16T00:17:55;15.90;73.70
75621;DHT22;64574;48.506;-2.750;2023-07-16T00:20:21;16.00;73.70
75621;DHT22;64574;48.506;-2.750;2023-07-16T00:22:49;16.00;73.60
75621;DHT22;64574;48.506;-2.750;2023-07-16T00:25:14;16.00;73.60
75621;DHT22;64574;48.506;-2.750;2023-07-16T00:27:40;16.00;73.70
75621;DHT22;64574;48.506;-2.750;2023-07-16T00:30:06;16.00;73.90
75621;DHT22;64574;48.506;-2.750;2023-07-16T00:32:32;16.00;73.70
75621;DHT22;64574;48.506;-2.750;2023-07-16T00:34:58;16.00;73.70
75621;DHT22;64574;48.506;-2.750;2023-07-16T00:37:24;16.00;73.70
75621;DHT22;64574;48.506;-2.750;2023-07-16T00:39:49;16.00;73.80
75621;DHT22;64574;48.506;-2.750;2023-07-16T00:42:15;15.80;74.20
75621;DHT22;64574;48.506;-2.750;2023-07-16T00:44:41;15.90;74.30
75621;DHT22;64574;48.506;-2.750;2023-07-16T00:47:06;15.90;74.20
75621;DHT22;64574;48.506;-2.750;2023-07-16T00:49:33;15.80;74.60
75621;DHT22;64574;48.506;-2.750;2023-07-16T00:51:59;15.90;74.60
75621;DHT22;64574;48.506;-2.750;2023-07-16T00:54:26;16.00;74.50
75621;DHT22;64574;48.506;-2.750;2023-07-16T00:56:52;16.10;74.00
75621;DHT22;64574;48.506;-2.750;2023-07-16T00:59:17;16.00;74.30
75621;DHT22;64574;48.506;-2.750;2023-07-16T01:01:43;16.00;74.20
75621;DHT22;64574;48.506;-2.750;2023-07-16T01:04:08;16.00;74.30
75621;DHT22;64574;48.506;-2.750;2023-07-16T01:06:42;16.20;73.90
75621;DHT22;64574;48.506;-2.750;2023-07-16T01:09:17;16.10;74.10
75621;DHT22;64574;48.506;-2.750;2023-07-16T01:11:44;16.10;74.30
75621;DHT22;64574;48.506;-2.750;2023-07-16T01:14:12;16.10;74.30
75621;DHT22;64574;48.506;-2.750;2023-07-16T01:16:38;16.10;74.50
75621;DHT22;64574;48.506;-2.750;2023-07-16T01:19:04;16.00;74.50
75621;DHT22;64574;48.506;-2.750;2023-07-16T01:22:00;16.00;74.60
75621;DHT22;64574;48.506;-2.750;2023-07-16T01:27:44;16.00;74.90
75621;DHT22;64574;48.506;-2.750;2023-07-16T01:30:17;16.00;74.70
75621;DHT22;64574;48.506;-2.750;2023-07-16T01:32:45;16.00;75.00
75621;DHT22;64574;48.506;-2.750;2023-07-16T01:35:12;15.90;75.20
75621;DHT22;64574;48.506;-2.750;2023-07-16T01:37:40;15.80;75.50
75621;DHT22;64574;48.506;-2.750;2023-07-16T01:40:07;15.80;75.50
75621;DHT22;64574;48.506;-2.750;2023-07-16T01:42:34;16.00;75.30
75621;DHT22;64574;48.506;-2.750;2023-07-16T01:45:00;16.00;75.30
75621;DHT22;64574;48.506;-2.750;2023-07-16T01:49:54;16.10;75.20
75621;DHT22;64574;48.506;-2.750;2023-07-16T01:52:19;16.10;75.40
75621;DHT22;64574;48.506;-2.750;2023-07-16T01:54:45;16.00;75.60
75621;DHT22;64574;48.506;-2.750;2023-07-16T01:57:11;16.00;75.40
75621;DHT22;64574;48.506;-2.750;2023-07-16T01:59:36;16.00;75.80
75621;DHT22;64574;48.506;-2.750;2023-07-16T02:02:02;16.00;75.50
75621;DHT22;64574;48.506;-2.750;2023-07-16T02:04:28;16.00;75.40
75621;DHT22;64574;48.506;-2.750;2023-07-16T02:06:53;16.00;75.40
75621;DHT22;64574;48.506;-2.750;2023-07-16T02:09:19;15.90;75.60
75621;DHT22;64574;48.506;-2.750;2023-07-16T02:11:45;15.90;75.80
75621;DHT22;64574;48.506;-2.750;2023-07-16T02:14:11;16.00;75.70
75621;DHT22;64574;48.506;-2.750;2023-07-16T02:16:36;15.90;75.90
75621;DHT22;64574;48.506;-2.750;2023-07-16T02:19:02;15.90;75.70
75621;DHT22;64574;48.506;-2.750;2023-07-16T02:21:28;15.80;76.00
75621;DHT22;64574;48.506;-2.750;2023-07-16T02:23:54;15.80;76.20
75621;DHT22;64574;48.506;-2.750;2023-07-16T02:26:19;15.90;76.00
75621;DHT22;64574;48.506;-2.750;2023-07-16T02:28:45;15.90;75.90
75621;DHT22;64574;48.506;-2.750;2023-07-16T02:31:10;15.90;75.80
75621;DHT22;64574;48.506;-2.750;2023-07-16T02:33:36;16.00;75.70
75621;DHT22;64574;48.506;-2.750;2023-07-16T02:36:02;16.00;75.70
75621;DHT22;64574;48.506;-2.750;2023-07-16T02:38:27;16.00;75.50
75621;DHT22;64574;48.506;-2.750;2023-07-16T02:40:53;16.00;75.40
75621;DHT22;64574;48.506;-2.750;2023-07-16T02:43:19;16.10;75.20
75621;DHT22;64574;48.506;-2.750;2023-07-16T02:45:45;16.00;75.50
75621;DHT22;64574;48.506;-2.750;2023-07-16T02:48:10;16.00;75.50
75621;DHT22;64574;48.506;-2.750;2023-07-16T02:50:37;16.00;75.70
75621;DHT22;64574;48.506;-2.750;2023-07-16T02:53:06;16.00;75.70
75621;DHT22;64574;48.506;-2.750;2023-07-16T02:55:34;16.00;75.70
75621;DHT22;64574;48.506;-2.750;2023-07-16T02:58:00;16.10;75.40
75621;DHT22;64574;48.506;-2.750;2023-07-16T03:00:30;16.10;75.40
75621;DHT22;64574;48.506;-2.750;2023-07-16T03:02:56;15.90;76.50
75621;DHT22;64574;48.506;-2.750;2023-07-16T03:05:23;15.90;76.60
75621;DHT22;64574;48.506;-2.750;2023-07-16T03:07:49;16.00;76.80
75621;DHT22;64574;48.506;-2.750;2023-07-16T03:10:14;16.00;76.60
75621;DHT22;64574;48.506;-2.750;2023-07-16T03:12:40;16.00;77.00
75621;DHT22;64574;48.506;-2.750;2023-07-16T03:15:06;15.80;77.40
75621;DHT22;64574;48.506;-2.750;2023-07-16T03:17:32;15.80;77.40
75621;DHT22;64574;48.506;-2.750;2023-07-16T03:19:58;15.90;77.50
75621;DHT22;64574;48.506;-2.750;2023-07-16T03:22:23;15.80;77.70
75621;DHT22;64574;48.506;-2.750;2023-07-16T03:24:49;15.80;78.20
75621;DHT22;64574;48.506;-2.750;2023-07-16T03:27:14;15.80;78.00
75621;DHT22;64574;48.506;-2.750;2023-07-16T03:29:40;15.80;78.20
75621;DHT22;64574;48.506;-2.750;2023-07-16T03:32:06;15.80;78.40
75621;DHT22;64574;48.506;-2.750;2023-07-16T03:34:31;15.60;79.00
75621;DHT22;64574;48.506;-2.750;2023-07-16T03:36:57;15.80;78.40
75621;DHT22;64574;48.506;-2.750;2023-07-16T03:39:23;15.80;78.90
75621;DHT22;64574;48.506;-2.750;2023-07-16T03:41:48;15.80;78.70
75621;DHT22;64574;48.506;-2.750;2023-07-16T03:44:14;15.80;78.30
75621;DHT22;64574;48.506;-2.750;2023-07-16T03:46:40;15.80;78.50
75621;DHT22;64574;48.506;-2.750;2023-07-16T03:49:08;15.80;78.50
75621;DHT22;64574;48.506;-2.750;2023-07-16T03:51:34;15.70;78.60
75621;DHT22;64574;48.506;-2.750;2023-07-16T03:54:00;15.80;78.70
75621;DHT22;64574;48.506;-2.750;2023-07-16T03:56:26;15.80;78.60
75621;DHT22;64574;48.506;-2.750;2023-07-16T03:58:51;15.80;78.60
75621;DHT22;64574;48.506;-2.750;2023-07-16T04:01:17;15.70;78.60
75621;DHT22;64574;48.506;-2.750;2023-07-16T04:03:42;15.60;79.00
75621;DHT22;64574;48.506;-2.750;2023-07-16T04:06:09;15.60;78.80
75621;DHT22;64574;48.506;-2.750;2023-07-16T04:08:35;15.80;78.40
75621;DHT22;64574;48.506;-2.750;2023-07-16T04:11:02;15.80;78.30
75621;DHT22;64574;48.506;-2.750;2023-07-16T04:13:28;15.80;78.30
75621;DHT22;64574;48.506;-2.750;2023-07-16T04:15:53;15.80;78.30
75621;DHT22;64574;48.506;-2.750;2023-07-16T04:18:24;15.70;78.40
75621;DHT22;64574;48.506;-2.750;2023-07-16T04:20:50;15.80;78.40
75621;DHT22;64574;48.506;-2.750;2023-07-16T04:23:16;15.80;78.10
75621;DHT22;64574;48.506;-2.750;2023-07-16T04:25:42;15.70;78.40
75621;DHT22;64574;48.506;-2.750;2023-07-16T04:28:07;15.60;78.90
75621;DHT22;64574;48.506;-2.750;2023-07-16T04:30:33;15.60;78.30
75621;DHT22;64574;48.506;-2.750;2023-07-16T04:32:59;15.50;79.00
75621;DHT22;64574;48.506;-2.750;2023-07-16T04:35:24;15.60;78.50
75621;DHT22;64574;48.506;-2.750;2023-07-16T04:37:50;15.60;78.20
75621;DHT22;64574;48.506;-2.750;2023-07-16T04:40:16;15.60;78.30
75621;DHT22;64574;48.506;-2.750;2023-07-16T04:42:41;15.60;78.60
75621;DHT22;64574;48.506;-2.750;2023-07-16T04:45:07;15.60;78.50
75621;DHT22;64574;48.506;-2.750;2023-07-16T04:47:33;15.60;78.30
75621;DHT22;64574;48.506;-2.750;2023-07-16T04:49:58;15.60;78.10
75621;DHT22;64574;48.506;-2.750;2023-07-16T04:52:24;15.50;78.60
75621;DHT22;64574;48.506;-2.750;2023-07-16T04:54:50;15.60;78.30
75621;DHT22;64574;48.506;-2.750;2023-07-16T04:57:16;15.60;78.20
75621;DHT22;64574;48.506;-2.750;2023-07-16T04:59:42;15.60;77.80
75621;DHT22;64574;48.506;-2.750;2023-07-16T05:02:08;15.60;78.00
75621;DHT22;64574;48.506;-2.750;2023-07-16T05:04:34;15.60;78.30
75621;DHT22;64574;48.506;-2.750;2023-07-16T05:07:03;15.50;78.30
75621;DHT22;64574;48.506;-2.750;2023-07-16T05:09:29;15.60;77.80
75621;DHT22;64574;48.506;-2.750;2023-07-16T05:11:55;15.50;77.80
75621;DHT22;64574;48.506;-2.750;2023-07-16T05:14:20;15.50;78.10
75621;DHT22;64574;48.506;-2.750;2023-07-16T05:16:46;15.50;77.80
75621;DHT22;64574;48.506;-2.750;2023-07-16T05:19:12;15.50;77.60
75621;DHT22;64574;48.506;-2.750;2023-07-16T05:21:37;15.50;77.90
75621;DHT22;64574;48.506;-2.750;2023-07-16T05:24:03;15.50;77.60
75621;DHT22;64574;48.506;-2.750;2023-07-16T05:26:29;15.50;77.90
75621;DHT22;64574;48.506;-2.750;2023-07-16T05:28:55;15.60;77.60
75621;DHT22;64574;48.506;-2.750;2023-07-16T05:31:20;15.60;77.70
75621;DHT22;64574;48.506;-2.750;2023-07-16T05:33:46;15.50;77.70
75621;DHT22;64574;48.506;-2.750;2023-07-16T05:36:12;15.50;77.70
75621;DHT22;64574;48.506;-2.750;2023-07-16T05:38:37;15.60;77.60
75621;DHT22;64574;48.506;-2.750;2023-07-16T05:41:03;15.50;77.80
75621;DHT22;64574;48.506;-2.750;2023-07-16T05:43:30;15.50;77.80
75621;DHT22;64574;48.506;-2.750;2023-07-16T05:45:56;15.60;77.60
75621;DHT22;64574;48.506;-2.750;2023-07-16T05:48:21;15.60;77.70
75621;DHT22;64574;48.506;-2.750;2023-07-16T05:50:47;15.70;77.30
75621;DHT22;64574;48.506;-2.750;2023-07-16T05:53:12;15.80;77.20
75621;DHT22;64574;48.506;-2.750;2023-07-16T05:55:41;15.80;76.80
75621;DHT22;64574;48.506;-2.750;2023-07-16T05:58:07;15.80;76.00
75621;DHT22;64574;48.506;-2.750;2023-07-16T06:00:32;15.80;76.50
75621;DHT22;64574;48.506;-2.750;2023-07-16T06:02:58;15.80;76.80
75621;DHT22;64574;48.506;-2.750;2023-07-16T06:05:24;15.70;77.10
75621;DHT22;64574;48.506;-2.750;2023-07-16T06:07:52;15.70;76.50
75621;DHT22;64574;48.506;-2.750;2023-07-16T06:10:18;15.60;76.80
75621;DHT22;64574;48.506;-2.750;2023-07-16T06:12:43;15.70;76.80
75621;DHT22;64574;48.506;-2.750;2023-07-16T06:15:09;15.60;77.10
75621;DHT22;64574;48.506;-2.750;2023-07-16T06:17:35;15.80;76.80
75621;DHT22;64574;48.506;-2.750;2023-07-16T06:20:02;15.80;77.00
75621;DHT22;64574;48.506;-2.750;2023-07-16T06:22:28;15.60;77.30
75621;DHT22;64574;48.506;-2.750;2023-07-16T06:24:54;15.60;77.30
75621;DHT22;64574;48.506;-2.750;2023-07-16T06:27:19;15.60;77.70
75621;DHT22;64574;48.506;-2.750;2023-07-16T06:29:45;15.60;77.60
75621;DHT22;64574;48.506;-2.750;2023-07-16T06:32:10;15.70;77.60
75621;DHT22;64574;48.506;-2.750;2023-07-16T06:34:36;15.90;76.90
75621;DHT22;64574;48.506;-2.750;2023-07-16T06:37:02;16.00;76.70
75621;DHT22;64574;48.506;-2.750;2023-07-16T06:39:27;16.20;76.10
75621;DHT22;64574;48.506;-2.750;2023-07-16T06:41:53;16.10;75.50
75621;DHT22;64574;48.506;-2.750;2023-07-16T06:44:19;16.30;75.30
75621;DHT22;64574;48.506;-2.750;2023-07-16T06:46:44;16.30;75.10
75621;DHT22;64574;48.506;-2.750;2023-07-16T06:49:10;16.20;75.00
75621;DHT22;64574;48.506;-2.750;2023-07-16T06:51:35;16.20;75.00
75621;DHT22;64574;48.506;-2.750;2023-07-16T06:54:01;16.10;74.80
75621;DHT22;64574;48.506;-2.750;2023-07-16T06:56:26;16.00;75.50
75621;DHT22;64574;48.506;-2.750;2023-07-16T06:58:52;16.10;75.40
75621;DHT22;64574;48.506;-2.750;2023-07-16T07:01:17;16.10;75.40
75621;DHT22;64574;48.506;-2.750;2023-07-16T07:03:43;16.10;75.20
75621;DHT22;64574;48.506;-2.750;2023-07-16T07:06:09;16.00;75.60
75621;DHT22;64574;48.506;-2.750;2023-07-16T07:08:36;16.20;75.40
75621;DHT22;64574;48.506;-2.750;2023-07-16T07:11:03;16.10;75.80
75621;DHT22;64574;48.506;-2.750;2023-07-16T07:13:29;16.10;75.60
75621;DHT22;64574;48.506;-2.750;2023-07-16T07:15:55;16.20;75.40
75621;DHT22;64574;48.506;-2.750;2023-07-16T07:18:21;16.20;74.80
75621;DHT22;64574;48.506;-2.750;2023-07-16T07:20:46;16.40;74.00
75621;DHT22;64574;48.506;-2.750;2023-07-16T07:23:16;16.50;74.40
75621;DHT22;64574;48.506;-2.750;2023-07-16T07:25:41;16.70;73.00
75621;DHT22;64574;48.506;-2.750;2023-07-16T07:28:07;16.80;72.80
75621;DHT22;64574;48.506;-2.750;2023-07-16T07:30:33;16.90;72.70
75621;DHT22;64574;48.506;-2.750;2023-07-16T07:32:59;16.80;72.50
75621;DHT22;64574;48.506;-2.750;2023-07-16T07:35:24;16.90;72.20
75621;DHT22;64574;48.506;-2.750;2023-07-16T07:37:50;16.80;72.70
75621;DHT22;64574;48.506;-2.750;2023-07-16T07:40:16;16.80;72.80
75621;DHT22;64574;48.506;-2.750;2023-07-16T07:42:41;16.70;72.60
75621;DHT22;64574;48.506;-2.750;2023-07-16T07:45:07;16.70;71.90
75621;DHT22;64574;48.506;-2.750;2023-07-16T07:47:33;16.80;71.90
75621;DHT22;64574;48.506;-2.750;2023-07-16T07:49:58;17.00;71.00
75621;DHT22;64574;48.506;-2.750;2023-07-16T07:52:24;17.10;71.40
75621;DHT22;64574;48.506;-2.750;2023-07-16T07:54:49;17.10;71.10
75621;DHT22;64574;48.506;-2.750;2023-07-16T07:57:15;17.20;70.70
75621;DHT22;64574;48.506;-2.750;2023-07-16T07:59:41;17.20;70.10
75621;DHT22;64574;48.506;-2.750;2023-07-16T08:02:06;17.30;70.30
75621;DHT22;64574;48.506;-2.750;2023-07-16T08:04:32;17.20;70.50
75621;DHT22;64574;48.506;-2.750;2023-07-16T08:06:58;17.10;70.50
75621;DHT22;64574;48.506;-2.750;2023-07-16T08:09:25;17.20;70.70
75621;DHT22;64574;48.506;-2.750;2023-07-16T08:11:50;17.00;70.90
75621;DHT22;64574;48.506;-2.750;2023-07-16T08:14:16;17.10;70.90
75621;DHT22;64574;48.506;-2.750;2023-07-16T08:16:41;17.10;70.30
75621;DHT22;64574;48.506;-2.750;2023-07-16T08:19:07;17.00;70.70
75621;DHT22;64574;48.506;-2.750;2023-07-16T08:21:33;17.10;70.70
75621;DHT22;64574;48.506;-2.750;2023-07-16T08:23:59;17.20;70.80
75621;DHT22;64574;48.506;-2.750;2023-07-16T08:26:24;17.20;70.30
75621;DHT22;64574;48.506;-2.750;2023-07-16T08:28:50;17.20;70.70
75621;DHT22;64574;48.506;-2.750;2023-07-16T08:31:16;17.50;70.40
75621;DHT22;64574;48.506;-2.750;2023-07-16T08:33:41;17.50;70.00
75621;DHT22;64574;48.506;-2.750;2023-07-16T08:36:07;17.30;70.80
75621;DHT22;64574;48.506;-2.750;2023-07-16T08:38:32;17.40;70.40
75621;DHT22;64574;48.506;-2.750;2023-07-16T08:41:00;17.20;71.00
75621;DHT22;64574;48.506;-2.750;2023-07-16T08:43:26;17.20;70.90
75621;DHT22;64574;48.506;-2.750;2023-07-16T08:45:52;17.10;70.40
75621;DHT22;64574;48.506;-2.750;2023-07-16T08:48:18;17.20;70.50
75621;DHT22;64574;48.506;-2.750;2023-07-16T08:50:47;17.10;70.80
75621;DHT22;64574;48.506;-2.750;2023-07-16T08:53:16;17.20;70.20
75621;DHT22;64574;48.506;-2.750;2023-07-16T08:55:45;17.20;69.70
75621;DHT22;64574;48.506;-2.750;2023-07-16T08:58:15;17.20;70.70
75621;DHT22;64574;48.506;-2.750;2023-07-16T09:00:50;17.20;69.80
75621;DHT22;64574;48.506;-2.750;2023-07-16T09:03:16;17.40;69.40
75621;DHT22;64574;48.506;-2.750;2023-07-16T09:05:44;17.50;69.00
75621;DHT22;64574;48.506;-2.750;2023-07-16T09:08:10;17.60;68.20
75621;DHT22;64574;48.506;-2.750;2023-07-16T09:10:37;17.40;67.50
75621;DHT22;64574;48.506;-2.750;2023-07-16T09:13:02;17.40;67.40
75621;DHT22;64574;48.506;-2.750;2023-07-16T09:15:29;17.40;66.40
75621;DHT22;64574;48.506;-2.750;2023-07-16T09:17:55;17.50;67.50
75621;DHT22;64574;48.506;-2.750;2023-07-16T09:20:21;17.60;67.00
75621;DHT22;64574;48.506;-2.750;2023-07-16T09:22:49;17.50;66.90
75621;DHT22;64574;48.506;-2.750;2023-07-16T09:25:15;17.70;66.90
75621;DHT22;64574;48.506;-2.750;2023-07-16T09:27:40;17.90;65.90
75621;DHT22;64574;48.506;-2.750;2023-07-16T09:30:07;18.00;65.90
75621;DHT22;64574;48.506;-2.750;2023-07-16T09:32:36;18.00;65.60
75621;DHT22;64574;48.506;-2.750;2023-07-16T09:35:10;17.80;65.30
75621;DHT22;64574;48.506;-2.750;2023-07-16T09:37:39;17.80;65.40
75621;DHT22;64574;48.506;-2.750;2023-07-16T09:40:07;18.00;65.50
75621;DHT22;64574;48.506;-2.750;2023-07-16T09:42:41;18.20;65.20
75621;DHT22;64574;48.506;-2.750;2023-07-16T09:45:12;18.00;65.10
75621;DHT22;64574;48.506;-2.750;2023-07-16T09:47:38;18.20;64.10
75621;DHT22;64574;48.506;-2.750;2023-07-16T09:50:04;18.10;63.80
75621;DHT22;64574;48.506;-2.750;2023-07-16T09:52:32;18.20;64.30
75621;DHT22;64574;48.506;-2.750;2023-07-16T09:55:01;18.40;63.80
75621;DHT22;64574;48.506;-2.750;2023-07-16T09:57:28;18.40;63.20
75621;DHT22;64574;48.506;-2.750;2023-07-16T09:59:58;18.30;63.40
75621;DHT22;64574;48.506;-2.750;2023-07-16T10:02:26;18.50;62.70
75621;DHT22;64574;48.506;-2.750;2023-07-16T10:04:51;18.10;63.10
75621;DHT22;64574;48.506;-2.750;2023-07-16T10:07:25;18.40;63.00
75621;DHT22;64574;48.506;-2.750;2023-07-16T10:09:56;18.50;63.10
75621;DHT22;64574;48.506;-2.750;2023-07-16T10:12:26;18.50;62.60
75621;DHT22;64574;48.506;-2.750;2023-07-16T10:14:55;18.50;62.60
75621;DHT22;64574;48.506;-2.750;2023-07-16T10:17:25;18.60;62.20
75621;DHT22;64574;48.506;-2.750;2023-07-16T10:20:10;18.80;61.80
75621;DHT22;64574;48.506;-2.750;2023-07-16T10:22:36;18.80;61.40
75621;DHT22;64574;48.506;-2.750;2023-07-16T10:27:34;18.70;62.30
75621;DHT22;64574;48.506;-2.750;2023-07-16T10:30:01;18.80;61.90
75621;DHT22;64574;48.506;-2.750;2023-07-16T10:32:33;18.80;61.00
75621;DHT22;64574;48.506;-2.750;2023-07-16T10:34:59;18.80;61.40
75621;DHT22;64574;48.506;-2.750;2023-07-16T10:37:25;18.70;61.30
75621;DHT22;64574;48.506;-2.750;2023-07-16T10:39:53;18.70;62.50
75621;DHT22;64574;48.506;-2.750;2023-07-16T10:42:28;18.80;61.90
75621;DHT22;64574;48.506;-2.750;2023-07-16T10:44:57;19.00;61.00
75621;DHT22;64574;48.506;-2.750;2023-07-16T10:47:25;19.20;60.70
75621;DHT22;64574;48.506;-2.750;2023-07-16T10:49:51;19.30;60.10
75621;DHT22;64574;48.506;-2.750;2023-07-16T10:52:17;19.50;59.20
75621;DHT22;64574;48.506;-2.750;2023-07-16T10:54:43;19.70;58.20
75621;DHT22;64574;48.506;-2.750;2023-07-16T10:57:11;20.00;57.90
75621;DHT22;64574;48.506;-2.750;2023-07-16T10:59:42;20.10;57.50
75621;DHT22;64574;48.506;-2.750;2023-07-16T11:02:14;20.20;57.40
75621;DHT22;64574;48.506;-2.750;2023-07-16T11:04:40;20.10;56.50
75621;DHT22;64574;48.506;-2.750;2023-07-16T11:07:06;20.40;56.70
75621;DHT22;64574;48.506;-2.750;2023-07-16T11:09:33;20.50;56.40
75621;DHT22;64574;48.506;-2.750;2023-07-16T11:12:06;20.60;56.00
75621;DHT22;64574;48.506;-2.750;2023-07-16T11:14:32;20.30;56.90
75621;DHT22;64574;48.506;-2.750;2023-07-16T11:17:03;20.00;57.10
75621;DHT22;64574;48.506;-2.750;2023-07-16T11:19:30;19.90;57.30
75621;DHT22;64574;48.506;-2.750;2023-07-16T11:21:56;19.50;57.60
75621;DHT22;64574;48.506;-2.750;2023-07-16T11:24:21;19.30;59.10
75621;DHT22;64574;48.506;-2.750;2023-07-16T11:26:56;18.40;59.70
75621;DHT22;64574;48.506;-2.750;2023-07-16T11:29:25;17.90;61.40
75621;DHT22;64574;48.506;-2.750;2023-07-16T11:31:52;17.80;61.40
75621;DHT22;64574;48.506;-2.750;2023-07-16T11:34:20;17.60;60.90
75621;DHT22;64574;48.506;-2.750;2023-07-16T11:36:48;17.40;61.60
75621;DHT22;64574;48.506;-2.750;2023-07-16T11:39:14;17.40;60.70
75621;DHT22;64574;48.506;-2.750;2023-07-16T11:41:39;16.80;62.40
75621;DHT22;64574;48.506;-2.750;2023-07-16T11:44:07;17.00;63.20
75621;DHT22;64574;48.506;-2.750;2023-07-16T11:46:34;17.00;65.10
75621;DHT22;64574;48.506;-2.750;2023-07-16T11:49:00;17.20;65.50
75621;DHT22;64574;48.506;-2.750;2023-07-16T11:51:26;17.10;66.40
75621;DHT22;64574;48.506;-2.750;2023-07-16T11:53:52;16.90;66.70
75621;DHT22;64574;48.506;-2.750;2023-07-16T11:56:18;17.00;66.60
75621;DHT22;64574;48.506;-2.750;2023-07-16T11:58:43;17.40;65.60
75621;DHT22;64574;48.506;-2.750;2023-07-16T12:01:09;17.50;64.50
75621;DHT22;64574;48.506;-2.750;2023-07-16T12:03:35;17.60;63.70
75621;DHT22;64574;48.506;-2.750;2023-07-16T12:06:00;18.00;62.50
75621;DHT22;64574;48.506;-2.750;2023-07-16T12:08:26;18.30;61.50
75621;DHT22;64574;48.506;-2.750;2023-07-16T12:10:51;18.30;61.30
75621;DHT22;64574;48.506;-2.750;2023-07-16T12:13:17;18.20;60.30
75621;DHT22;64574;48.506;-2.750;2023-07-16T12:15:42;17.80;60.00
75621;DHT22;64574;48.506;-2.750;2023-07-16T12:18:08;17.90;61.00
75621;DHT22;64574;48.506;-2.750;2023-07-16T12:20:34;18.20;60.30
75621;DHT22;64574;48.506;-2.750;2023-07-16T12:22:59;18.40;60.00
75621;DHT22;64574;48.506;-2.750;2023-07-16T12:25:25;18.50;59.60
75621;DHT22;64574;48.506;-2.750;2023-07-16T12:27:50;18.70;59.60
75621;DHT22;64574;48.506;-2.750;2023-07-16T12:30:16;19.00;59.20
75621;DHT22;64574;48.506;-2.750;2023-07-16T12:32:41;18.90;58.50
75621;DHT22;64574;48.506;-2.750;2023-07-16T12:35:07;19.00;59.00
75621;DHT22;64574;48.506;-2.750;2023-07-16T12:37:33;18.70;58.90
75621;DHT22;64574;48.506;-2.750;2023-07-16T12:39:58;19.00;58.60
75621;DHT22;64574;48.506;-2.750;2023-07-16T12:42:24;19.30;57.90
75621;DHT22;64574;48.506;-2.750;2023-07-16T12:44:49;19.50;57.90
75621;DHT22;64574;48.506;-2.750;2023-07-16T12:47:15;19.50;58.10
75621;DHT22;64574;48.506;-2.750;2023-07-16T12:49:41;19.20;58.20
75621;DHT22;64574;48.506;-2.750;2023-07-16T12:52:07;19.50;58.50
75621;DHT22;64574;48.506;-2.750;2023-07-16T12:54:33;19.70;58.00
75621;DHT22;64574;48.506;-2.750;2023-07-16T12:56:58;19.50;58.10
75621;DHT22;64574;48.506;-2.750;2023-07-16T12:59:24;19.70;58.80
75621;DHT22;64574;48.506;-2.750;2023-07-16T13:01:50;20.00;57.70
75621;DHT22;64574;48.506;-2.750;2023-07-16T13:04:16;20.00;56.70
75621;DHT22;64574;48.506;-2.750;2023-07-16T13:06:42;20.00;56.70
75621;DHT22;64574;48.506;-2.750;2023-07-16T13:09:07;20.00;57.00
75621;DHT22;64574;48.506;-2.750;2023-07-16T13:11:33;20.00;57.40
75621;DHT22;64574;48.506;-2.750;2023-07-16T13:13:59;20.10;57.60
75621;DHT22;64574;48.506;-2.750;2023-07-16T13:16:25;20.40;57.10
75621;DHT22;64574;48.506;-2.750;2023-07-16T13:18:51;20.20;56.70
75621;DHT22;64574;48.506;-2.750;2023-07-16T13:21:17;20.00;56.80
75621;DHT22;64574;48.506;-2.750;2023-07-16T13:23:42;20.00;55.80
75621;DHT22;64574;48.506;-2.750;2023-07-16T13:26:08;19.90;55.50
75621;DHT22;64574;48.506;-2.750;2023-07-16T13:28:34;19.70;56.40
75621;DHT22;64574;48.506;-2.750;2023-07-16T13:31:00;19.50;57.20
75621;DHT22;64574;48.506;-2.750;2023-07-16T13:33:25;19.40;57.30
75621;DHT22;64574;48.506;-2.750;2023-07-16T13:35:51;19.10;58.20
75621;DHT22;64574;48.506;-2.750;2023-07-16T13:38:17;19.00;58.60
75621;DHT22;64574;48.506;-2.750;2023-07-16T13:40:42;19.00;58.70
75621;DHT22;64574;48.506;-2.750;2023-07-16T13:43:08;19.10;59.10
75621;DHT22;64574;48.506;-2.750;2023-07-16T13:45:34;19.30;58.80
75621;DHT22;64574;48.506;-2.750;2023-07-16T13:48:00;19.50;58.80
75621;DHT22;64574;48.506;-2.750;2023-07-16T13:50:25;19.70;57.60
75621;DHT22;64574;48.506;-2.750;2023-07-16T13:52:51;19.80;58.20
75621;DHT22;64574;48.506;-2.750;2023-07-16T13:55:17;19.90;57.60
75621;DHT22;64574;48.506;-2.750;2023-07-16T13:57:43;19.80;57.50
75621;DHT22;64574;48.506;-2.750;2023-07-16T14:00:09;19.90;57.60
75621;DHT22;64574;48.506;-2.750;2023-07-16T14:02:36;19.90;57.50
75621;DHT22;64574;48.506;-2.750;2023-07-16T14:05:01;20.00;56.90
75621;DHT22;64574;48.506;-2.750;2023-07-16T14:07:27;20.10;56.80
75621;DHT22;64574;48.506;-2.750;2023-07-16T14:09:53;20.30;55.10
75621;DHT22;64574;48.506;-2.750;2023-07-16T14:12:19;20.00;54.10
75621;DHT22;64574;48.506;-2.750;2023-07-16T14:14:44;19.70;53.20
75621;DHT22;64574;48.506;-2.750;2023-07-16T14:17:10;20.00;52.80
75621;DHT22;64574;48.506;-2.750;2023-07-16T14:19:36;20.10;52.30
75621;DHT22;64574;48.506;-2.750;2023-07-16T14:22:01;20.30;52.40
75621;DHT22;64574;48.506;-2.750;2023-07-16T14:24:27;20.30;52.80
75621;DHT22;64574;48.506;-2.750;2023-07-16T14:26:53;20.00;53.50
75621;DHT22;64574;48.506;-2.750;2023-07-16T14:29:18;19.80;54.00
75621;DHT22;64574;48.506;-2.750;2023-07-16T14:31:44;19.60;54.70
75621;DHT22;64574;48.506;-2.750;2023-07-16T14:34:10;19.90;53.90
75621;DHT22;64574;48.506;-2.750;2023-07-16T14:36:35;19.90;54.10
75621;DHT22;64574;48.506;-2.750;2023-07-16T14:39:01;19.90;53.80
75621;DHT22;64574;48.506;-2.750;2023-07-16T14:41:27;19.90;54.20
75621;DHT22;64574;48.506;-2.750;2023-07-16T14:43:52;19.90;54.50
75621;DHT22;64574;48.506;-2.750;2023-07-16T14:46:18;19.90;53.40
75621;DHT22;64574;48.506;-2.750;2023-07-16T14:48:44;19.70;52.80
75621;DHT22;64574;48.506;-2.750;2023-07-16T14:51:11;20.00;52.20
75621;DHT22;64574;48.506;-2.750;2023-07-16T14:53:37;20.10;51.70
75621;DHT22;64574;48.506;-2.750;2023-07-16T14:56:03;20.50;50.90
75621;DHT22;64574;48.506;-2.750;2023-07-16T14:58:31;20.50;50.60
75621;DHT22;64574;48.506;-2.750;2023-07-16T15:00:59;20.80;50.80
75621;DHT22;64574;48.506;-2.750;2023-07-16T15:03:26;20.70;50.20
75621;DHT22;64574;48.506;-2.750;2023-07-16T15:05:58;20.90;49.70
75621;DHT22;64574;48.506;-2.750;2023-07-16T15:08:24;21.00;49.10
75621;DHT22;64574;48.506;-2.750;2023-07-16T15:10:52;20.70;49.90
75621;DHT22;64574;48.506;-2.750;2023-07-16T15:13:18;20.70;50.50
75621;DHT22;64574;48.506;-2.750;2023-07-16T15:15:49;20.70;50.50
75621;DHT22;64574;48.506;-2.750;2023-07-16T15:18:15;20.50;50.30